createdAt,value
2019-01-12T00:00:43.838Z,47.10
2019-01-12T00:03:09.749Z,47.38
2019-01-12T00:05:35.669Z,47.54
2019-01-12T00:08:01.692Z,48.01
2019-01-12T00:10:27.584Z,48.49
2019-01-12T00:12:53.517Z,48.69
2019-01-12T00:15:19.361Z,49.09
2019-01-12T00:17:45.264Z,49.03
2019-01-12T00:20:11.141Z,49.19
2019-01-12T00:22:37.029Z,49.15
2019-01-12T00:25:05.401Z,49.23
2019-01-12T00:27:31.275Z,49.26
2019-01-12T00:29:57.188Z,48.71
2019-01-12T00:32:23.295Z,48.13
2019-01-12T00:34:51.176Z,47.17
2019-01-12T00:37:17.060Z,46.87
2019-01-12T00:39:43.054Z,46.21
2019-01-12T00:42:08.936Z,46.21
2019-01-12T00:44:34.824Z,46.48
2019-01-12T00:47:00.698Z,46.29
2019-01-12T00:49:26.600Z,45.97
2019-01-12T00:51:52.485Z,46.03
2019-01-12T00:54:18.476Z,45.80
2019-01-12T00:56:44.371Z,46.91
2019-01-12T00:59:10.252Z,47.37
2019-01-12T01:01:36.127Z,47.56
2019-01-12T01:04:02.081Z,47.81
2019-01-12T01:06:27.940Z,48.43
2019-01-12T01:08:53.870Z,48.64
2019-01-12T01:11:19.826Z,47.26
2019-01-12T01:13:45.697Z,47.12
2019-01-12T01:16:11.580Z,47.17
2019-01-12T01:18:37.439Z,47.27
2019-01-12T01:21:03.439Z,46.86
2019-01-12T01:23:29.322Z,47.18
2019-01-12T01:25:55.298Z,46.46
2019-01-12T01:28:21.291Z,47.15
2019-01-12T01:30:47.653Z,47.15
2019-01-12T01:33:14.130Z,46.85
2019-01-12T01:35:40.017Z,47.29
2019-01-12T01:38:05.943Z,47.29
2019-01-12T01:40:31.836Z,47.22
2019-01-12T01:42:57.829Z,47.99
2019-01-12T01:45:23.711Z,48.50
2019-01-12T01:47:49.696Z,47.99
2019-01-12T01:50:15.682Z,47.52
2019-01-12T01:52:41.575Z,47.07
2019-01-12T01:55:07.674Z,46.49
2019-01-12T01:57:33.545Z,46.27
2019-01-12T01:59:59.516Z,46.61
2019-01-12T02:02:25.411Z,46.70
2019-01-12T02:04:51.704Z,47.20
2019-01-12T02:07:17.591Z,47.08
2019-01-12T02:09:43.477Z,47.15
2019-01-12T02:12:09.344Z,46.87
2019-01-12T02:14:35.213Z,46.72
2019-01-12T02:17:01.077Z,46.50
2019-01-12T02:19:26.951Z,46.63
2019-01-12T02:21:52.834Z,46.59
2019-01-12T02:24:18.706Z,46.60
2019-01-12T02:26:44.676Z,46.29
2019-01-12T02:29:10.545Z,46.29
2019-01-12T02:31:36.447Z,46.95
2019-01-12T02:34:02.642Z,47.19
2019-01-12T02:36:28.516Z,47.16
2019-01-12T02:38:54.383Z,47.29
2019-01-12T02:41:20.272Z,47.46
2019-01-12T02:43:46.313Z,47.47
2019-01-12T02:46:12.309Z,47.59
2019-01-12T02:48:38.189Z,47.35
2019-01-12T02:51:04.114Z,46.96
2019-01-12T02:53:30.016Z,46.51
2019-01-12T02:55:55.899Z,46.70
2019-01-12T02:58:21.855Z,46.83
2019-01-12T03:00:47.744Z,47.17
2019-01-12T03:03:13.597Z,47.45
2019-01-12T03:05:39.491Z,47.86
2019-01-12T03:08:05.388Z,47.79
2019-01-12T03:10:31.301Z,48.01
2019-01-12T03:12:57.171Z,48.44
2019-01-12T03:15:23.130Z,48.64
2019-01-12T03:17:49.220Z,48.20
2019-01-12T03:20:16.384Z,48.35
2019-01-12T03:22:42.284Z,48.29
2019-01-12T03:25:08.152Z,47.99
2019-01-12T03:27:34.009Z,47.60
2019-01-12T03:30:00.034Z,47.28
2019-01-12T03:32:25.969Z,46.72
2019-01-12T03:34:52.310Z,47.37
2019-01-12T03:37:18.191Z,47.39
2019-01-12T03:39:44.062Z,47.32
2019-01-12T03:42:10.051Z,47.19
2019-01-12T03:44:35.934Z,47.29
2019-01-12T03:47:01.821Z,46.64
2019-01-12T03:49:27.752Z,46.55
2019-01-12T03:51:53.606Z,46.01
2019-01-12T03:54:19.495Z,45.91
2019-01-12T03:56:45.396Z,46.25
2019-01-12T03:59:11.248Z,46.50
2019-01-12T04:01:37.138Z,46.62
2019-01-12T04:04:02.991Z,46.98
2019-01-12T04:06:28.886Z,46.66
2019-01-12T04:08:54.764Z,46.81
2019-01-12T04:11:20.639Z,46.70
2019-01-12T04:13:46.577Z,46.59
2019-01-12T04:16:12.601Z,46.29
2019-01-12T04:18:38.511Z,45.71
2019-01-12T04:21:04.363Z,45.99
2019-01-12T04:23:30.263Z,46.04
2019-01-12T04:25:56.238Z,46.41
2019-01-12T04:28:22.319Z,46.64
2019-01-12T04:30:48.232Z,46.33
2019-01-12T04:33:14.134Z,46.70
2019-01-12T04:35:40.691Z,46.65
2019-01-12T04:38:06.571Z,46.42
2019-01-12T04:40:32.443Z,46.20
2019-01-12T04:42:58.331Z,45.87
2019-01-12T04:45:24.199Z,46.24
2019-01-12T04:47:50.080Z,46.19
2019-01-12T04:50:15.968Z,45.94
2019-01-12T04:52:41.851Z,45.94
2019-01-12T04:55:07.734Z,46.20
2019-01-12T04:57:33.595Z,46.08
2019-01-12T04:59:59.583Z,46.08
2019-01-12T05:02:25.549Z,45.43
2019-01-12T05:04:51.375Z,45.43
2019-01-12T05:07:17.236Z,45.77
2019-01-12T05:09:43.119Z,45.51
2019-01-12T05:12:09.021Z,45.51
2019-01-12T05:14:35.128Z,45.30
2019-01-12T05:17:01.066Z,45.50
2019-01-12T05:19:27.017Z,45.42
2019-01-12T05:21:52.939Z,45.39
2019-01-12T05:24:18.780Z,45.69
2019-01-12T05:26:44.635Z,45.75
2019-01-12T05:29:10.507Z,46.04
2019-01-12T05:31:36.395Z,45.57
2019-01-12T05:34:02.327Z,45.55
2019-01-12T05:36:28.788Z,45.99
2019-01-12T05:38:54.884Z,45.56
2019-01-12T05:41:20.762Z,45.12
2019-01-12T05:43:46.622Z,44.69
2019-01-12T05:46:12.531Z,45.08
2019-01-12T05:48:38.430Z,44.80
2019-01-12T05:51:04.310Z,44.70
2019-01-12T05:53:30.170Z,44.40
2019-01-12T05:55:58.079Z,44.27
2019-01-12T05:58:23.926Z,44.57
2019-01-12T06:00:49.804Z,44.56
2019-01-12T06:03:15.651Z,44.72
2019-01-12T06:05:41.518Z,44.55
2019-01-12T06:08:07.427Z,44.86
2019-01-12T06:10:33.292Z,44.95
2019-01-12T06:12:59.154Z,44.73
2019-01-12T06:15:25.085Z,44.76
2019-01-12T06:17:51.078Z,44.60
2019-01-12T06:20:16.977Z,44.33
2019-01-12T06:22:42.938Z,44.11
2019-01-12T06:25:08.819Z,43.78
2019-01-12T06:27:34.744Z,44.02
2019-01-12T06:30:00.612Z,44.45
2019-01-12T06:32:26.534Z,44.69
2019-01-12T06:34:52.470Z,44.69
2019-01-12T06:37:19.022Z,44.53
2019-01-12T06:39:44.934Z,44.49
2019-01-12T06:42:10.827Z,44.09
2019-01-12T06:44:36.701Z,43.75
2019-01-12T06:47:02.597Z,43.89
2019-01-12T06:49:28.475Z,43.63
2019-01-12T06:51:54.330Z,43.36
2019-01-12T06:54:20.213Z,43.44
2019-01-12T06:56:46.079Z,43.26
2019-01-12T06:59:12.259Z,43.00
2019-01-12T07:01:38.115Z,42.69
2019-01-12T07:04:04.016Z,42.54
2019-01-12T07:06:29.985Z,42.99
2019-01-12T07:08:55.851Z,42.74
2019-01-12T07:11:21.732Z,42.46
2019-01-12T07:13:47.594Z,42.32
2019-01-12T07:16:13.506Z,42.51
2019-01-12T07:18:39.446Z,42.34
2019-01-12T07:21:05.360Z,41.97
2019-01-12T07:23:31.325Z,42.02
2019-01-12T07:25:57.180Z,42.26
2019-01-12T07:28:23.069Z,42.19
2019-01-12T07:30:48.975Z,41.37
2019-01-12T07:33:14.841Z,41.18
2019-01-12T07:35:40.742Z,40.89
2019-01-12T07:38:07.424Z,40.85
2019-01-12T07:40:33.350Z,40.62
2019-01-12T07:42:59.246Z,40.76
2019-01-12T07:45:25.219Z,40.88
2019-01-12T07:47:51.228Z,40.97
2019-01-12T07:50:17.192Z,40.99
2019-01-12T07:52:43.094Z,41.12
2019-01-12T07:55:09.099Z,40.59
2019-01-12T07:57:34.969Z,40.57
2019-01-12T08:00:02.237Z,40.75
2019-01-12T08:02:28.226Z,40.38
2019-01-12T08:04:54.187Z,40.43
2019-01-12T08:07:20.037Z,40.46
2019-01-12T08:09:45.930Z,39.86
2019-01-12T08:12:11.790Z,40.03
2019-01-12T08:14:37.649Z,39.86
2019-01-12T08:17:03.541Z,39.46
2019-01-12T08:19:29.506Z,39.30
2019-01-12T08:21:55.511Z,38.96
2019-01-12T08:24:21.385Z,38.76
2019-01-12T08:26:47.257Z,39.06
2019-01-12T08:29:13.134Z,38.07
2019-01-12T08:31:39.033Z,37.99
2019-01-12T08:34:04.930Z,38.23
2019-01-12T08:36:30.835Z,38.18
2019-01-12T08:38:58.220Z,37.70
2019-01-12T08:41:24.086Z,37.67
2019-01-12T08:43:49.962Z,37.38
2019-01-12T08:46:15.859Z,37.46
2019-01-12T08:48:41.729Z,37.37
2019-01-12T08:51:07.601Z,37.91
2019-01-12T08:53:33.512Z,37.84
2019-01-12T08:55:59.381Z,37.60
2019-01-12T08:58:25.347Z,38.07
2019-01-12T09:00:51.228Z,37.91
2019-01-12T09:03:17.097Z,38.26
2019-01-12T09:05:42.972Z,38.05
2019-01-12T09:08:08.834Z,37.72
2019-01-12T09:10:34.706Z,37.99
2019-01-12T09:13:00.578Z,37.79
2019-01-12T09:15:26.470Z,37.46
2019-01-12T09:17:52.431Z,37.47
2019-01-12T09:20:18.301Z,37.01
2019-01-12T09:22:44.193Z,36.67
2019-01-12T09:25:10.975Z,36.58
2019-01-12T09:27:36.948Z,36.59
2019-01-12T09:30:06.638Z,36.37
2019-01-12T09:32:32.513Z,36.64
2019-01-12T09:34:58.702Z,36.81
2019-01-12T09:37:24.645Z,36.67
2019-01-12T09:39:51.635Z,37.28
2019-01-12T09:42:17.509Z,36.43
2019-01-12T09:44:43.387Z,36.43
2019-01-12T09:47:09.248Z,36.30
2019-01-12T09:49:35.140Z,35.66
2019-01-12T09:52:01.012Z,35.18
2019-01-12T09:54:26.877Z,35.17
2019-01-12T09:56:52.739Z,35.58
2019-01-12T09:59:18.616Z,35.24
2019-01-12T10:01:44.563Z,35.34
2019-01-12T10:04:10.457Z,35.54
2019-01-12T10:06:36.458Z,35.64
2019-01-12T10:09:03.946Z,35.81
2019-01-12T10:11:29.826Z,35.67
2019-01-12T10:13:55.926Z,35.58
2019-01-12T10:16:21.807Z,35.46
2019-01-12T10:18:47.713Z,35.80
2019-01-12T10:21:15.121Z,35.76
2019-01-12T10:23:40.986Z,35.37
2019-01-12T10:26:06.867Z,35.06
2019-01-12T10:28:32.761Z,35.24
2019-01-12T10:30:58.631Z,35.09
2019-01-12T10:33:24.735Z,35.01
2019-01-12T10:35:50.594Z,35.00
2019-01-12T10:38:17.987Z,36.88
2019-01-12T10:40:44.353Z,36.72
2019-01-12T10:43:10.237Z,37.27
2019-01-12T10:45:36.233Z,37.08
2019-01-12T10:48:02.467Z,37.34
2019-01-12T10:50:30.219Z,37.53
2019-01-12T10:52:56.094Z,36.64
2019-01-12T10:55:21.985Z,36.09
2019-01-12T10:57:47.983Z,35.68
2019-01-12T11:00:22.935Z,35.07
2019-01-12T11:02:48.832Z,35.34
2019-01-12T11:05:14.815Z,35.30
2019-01-12T11:07:40.729Z,35.00
2019-01-12T11:10:09.501Z,34.21
2019-01-12T11:12:35.503Z,33.56
2019-01-12T11:15:01.464Z,33.56
2019-01-12T11:17:27.332Z,33.64
2019-01-12T11:19:54.002Z,34.11
2019-01-12T11:22:21.047Z,33.66
2019-01-12T11:24:46.946Z,33.47
2019-01-12T11:27:12.939Z,34.51
2019-01-12T11:29:38.801Z,33.98
2019-01-12T11:32:04.987Z,33.45
2019-01-12T11:34:33.078Z,33.57
2019-01-12T11:36:58.928Z,33.65
2019-01-12T11:39:24.853Z,33.80
2019-01-12T11:41:52.256Z,34.35
2019-01-12T11:44:18.271Z,34.17
2019-01-12T11:46:44.131Z,34.17
2019-01-12T11:49:09.994Z,34.13
2019-01-12T11:51:35.895Z,34.55
2019-01-12T11:54:01.817Z,34.49
2019-01-12T11:56:27.779Z,34.88
2019-01-12T11:58:53.663Z,33.85
2019-01-12T12:01:19.518Z,34.50
2019-01-12T12:03:45.371Z,34.67
2019-01-12T12:06:11.246Z,34.84
2019-01-12T12:08:37.102Z,34.65
2019-01-12T12:11:03.172Z,34.69
2019-01-12T12:13:29.050Z,34.92
2019-01-12T12:15:54.921Z,35.61
2019-01-12T12:18:20.809Z,35.34
2019-01-12T12:20:46.666Z,34.81
2019-01-12T12:23:12.568Z,35.80
2019-01-12T12:25:38.429Z,35.13
2019-01-12T12:28:04.301Z,35.54
2019-01-12T12:30:30.180Z,35.03
2019-01-12T12:32:56.039Z,35.73
2019-01-12T12:35:21.924Z,35.74
2019-01-12T12:37:47.784Z,35.07
2019-01-12T12:40:15.999Z,34.97
2019-01-12T12:42:43.212Z,34.26
2019-01-12T12:45:12.715Z,33.83
2019-01-12T12:47:38.565Z,33.72
2019-01-12T12:50:10.203Z,33.73
2019-01-12T12:52:36.081Z,33.71
2019-01-12T12:55:02.278Z,33.58
2019-01-12T12:57:32.838Z,33.08
2019-01-12T12:59:56.035Z,32.80
2019-01-12T13:02:21.878Z,32.97
2019-01-12T13:04:47.881Z,33.26
2019-01-12T13:07:13.772Z,31.75
2019-01-12T13:09:39.665Z,31.10
2019-01-12T13:12:06.051Z,30.23
2019-01-12T13:14:32.017Z,30.33
2019-01-12T13:16:57.966Z,29.56
2019-01-12T13:19:25.026Z,30.51
2019-01-12T13:21:50.954Z,30.36
2019-01-12T13:24:16.838Z,30.14
2019-01-12T13:26:42.706Z,30.28
2019-01-12T13:29:08.587Z,30.90
2019-01-12T13:31:34.431Z,30.08
2019-01-12T13:34:02.240Z,30.92
2019-01-12T13:36:28.116Z,29.94
2019-01-12T13:38:54.009Z,29.71
2019-01-12T13:41:19.897Z,29.76
2019-01-12T13:43:46.832Z,30.00
2019-01-12T13:46:12.810Z,30.41
2019-01-12T13:48:38.700Z,29.72
2019-01-12T13:51:04.557Z,30.25
2019-01-12T13:53:30.426Z,30.16
2019-01-12T13:55:56.296Z,30.34
2019-01-12T13:58:22.185Z,30.80
2019-01-12T14:00:48.077Z,32.08
2019-01-12T14:03:14.065Z,32.04
2019-01-12T14:05:39.930Z,32.43
2019-01-12T14:08:09.155Z,32.88
2019-01-12T14:10:35.236Z,33.06
2019-01-12T14:13:01.113Z,33.43
2019-01-12T14:15:27.086Z,32.75
2019-01-12T14:17:52.961Z,32.45
2019-01-12T14:20:27.950Z,31.97
2019-01-12T14:22:53.898Z,33.38
2019-01-12T14:25:19.770Z,33.45
2019-01-12T14:27:45.748Z,34.25
2019-01-12T14:30:15.658Z,34.66
2019-01-12T14:32:41.677Z,34.82
2019-01-12T14:35:09.565Z,35.25
2019-01-12T14:37:35.542Z,35.30
2019-01-12T14:40:01.396Z,34.39
2019-01-12T14:42:27.281Z,35.39
2019-01-12T14:44:53.813Z,36.41
2019-01-12T14:47:20.500Z,36.87
2019-01-12T14:49:46.368Z,36.74
2019-01-12T14:52:12.242Z,37.27
2019-01-12T14:54:38.123Z,37.15
2019-01-12T14:57:04.104Z,37.27
2019-01-12T14:59:30.004Z,37.07
2019-01-12T15:01:55.963Z,36.59
2019-01-12T15:04:21.838Z,36.91
2019-01-12T15:06:47.700Z,37.16
2019-01-12T15:09:13.565Z,38.63
2019-01-12T15:11:39.542Z,39.58
2019-01-12T15:14:05.422Z,41.11
2019-01-12T15:16:31.403Z,41.76
2019-01-12T15:18:57.291Z,42.95
2019-01-12T15:21:23.269Z,43.67
2019-01-12T15:23:49.193Z,44.08
2019-01-12T15:26:15.063Z,44.40
2019-01-12T15:28:40.931Z,45.32
2019-01-12T15:31:06.847Z,46.32
2019-01-12T15:33:32.689Z,46.95
2019-01-12T15:35:58.781Z,47.81
2019-01-12T15:38:24.690Z,49.17
2019-01-12T15:40:50.548Z,49.17
2019-01-12T15:43:16.455Z,49.41
2019-01-12T15:45:43.243Z,49.89
2019-01-12T15:48:09.100Z,50.56
2019-01-12T15:50:34.968Z,51.10
2019-01-12T15:53:01.611Z,51.49
2019-01-12T15:55:27.670Z,51.24
2019-01-12T15:57:53.542Z,51.42
2019-01-12T16:00:21.472Z,51.84
2019-01-12T16:02:47.446Z,51.70
2019-01-12T16:05:13.308Z,51.70
2019-01-12T16:07:39.155Z,51.75
2019-01-12T16:10:08.240Z,51.37
2019-01-12T16:12:36.574Z,51.32
2019-01-12T16:15:03.844Z,51.32
2019-01-12T16:17:29.729Z,51.64
2019-01-12T16:19:55.603Z,51.64
2019-01-12T16:22:21.523Z,51.84
2019-01-12T16:24:47.362Z,52.12
2019-01-12T16:27:13.249Z,52.23
2019-01-12T16:29:39.186Z,53.09
2019-01-12T16:32:05.047Z,53.52
2019-01-12T16:34:31.232Z,53.87
2019-01-12T16:36:57.252Z,54.31
2019-01-12T16:39:23.126Z,54.71
2019-01-12T16:41:49.096Z,54.80
2019-01-12T16:44:14.999Z,55.04
2019-01-12T16:46:41.350Z,55.37
2019-01-12T16:49:07.253Z,55.92
2019-01-12T16:51:33.105Z,55.92
2019-01-12T16:53:59.965Z,55.96
2019-01-12T16:56:25.811Z,56.22
2019-01-12T16:58:51.684Z,56.52
2019-01-12T17:01:17.553Z,56.27
2019-01-12T17:03:43.401Z,56.53
2019-01-12T17:06:09.414Z,56.36
2019-01-12T17:08:35.379Z,56.71
2019-01-12T17:11:01.415Z,56.73
2019-01-12T17:13:27.281Z,57.16
2019-01-12T17:15:53.281Z,57.54
2019-01-12T17:18:19.138Z,57.72
2019-01-12T17:20:45.017Z,57.63
2019-01-12T17:23:10.898Z,58.30
2019-01-12T17:25:36.805Z,57.54
2019-01-12T17:28:02.750Z,57.45
2019-01-12T17:30:28.573Z,57.91
2019-01-12T17:32:54.458Z,57.64
2019-01-12T17:35:20.438Z,58.11
2019-01-12T17:37:46.503Z,57.79
2019-01-12T17:40:14.190Z,57.92
2019-01-12T17:42:40.060Z,58.04
2019-01-12T17:45:09.483Z,57.80
2019-01-12T17:47:37.195Z,57.94
2019-01-12T17:50:06.744Z,58.62
2019-01-12T17:52:32.619Z,58.55
2019-01-12T17:54:58.482Z,58.66
2019-01-12T17:57:24.351Z,58.40
2019-01-12T17:59:50.210Z,58.89
2019-01-12T18:02:16.081Z,59.28
2019-01-12T18:04:41.988Z,59.16
2019-01-12T18:07:07.853Z,59.23
2019-01-12T18:09:33.721Z,59.60
2019-01-12T18:11:59.610Z,59.59
2019-01-12T18:14:25.548Z,59.30
2019-01-12T18:16:51.401Z,59.58
2019-01-12T18:19:17.272Z,59.49
2019-01-12T18:21:43.203Z,59.68
2019-01-12T18:24:09.070Z,59.23
2019-01-12T18:26:34.960Z,59.35
2019-01-12T18:29:01.327Z,59.74
2019-01-12T18:31:27.198Z,59.73
2019-01-12T18:33:53.058Z,59.51
2019-01-12T18:36:18.915Z,59.77
2019-01-12T18:38:44.789Z,60.00
2019-01-12T18:41:12.350Z,60.01
2019-01-12T18:43:38.665Z,59.60
2019-01-12T18:46:04.560Z,60.09
2019-01-12T18:48:30.705Z,59.63
2019-01-12T18:50:56.575Z,60.11
2019-01-12T18:53:22.458Z,59.30
2019-01-12T18:55:48.307Z,58.85
2019-01-12T18:58:14.170Z,59.44
2019-01-12T19:00:40.037Z,60.08
2019-01-12T19:03:05.908Z,59.64
2019-01-12T19:05:31.768Z,59.93
2019-01-12T19:07:57.643Z,59.86
2019-01-12T19:10:23.517Z,59.41
2019-01-12T19:12:49.394Z,60.00
2019-01-12T19:15:20.943Z,61.47
2019-01-12T19:17:46.838Z,61.81
2019-01-12T19:20:12.719Z,62.09
2019-01-12T19:22:38.715Z,61.67
2019-01-12T19:25:07.494Z,60.96
2019-01-12T19:27:33.345Z,61.24
2019-01-12T19:29:59.310Z,61.09
2019-01-12T19:32:25.186Z,61.36
2019-01-12T19:34:51.056Z,61.62
2019-01-12T19:37:16.967Z,61.47
2019-01-12T19:39:42.825Z,60.13
2019-01-12T19:42:08.690Z,59.35
2019-01-12T19:44:34.546Z,58.96
2019-01-12T19:47:00.772Z,59.82
2019-01-12T19:49:27.014Z,60.13
2019-01-12T19:51:52.877Z,60.99
2019-01-12T19:54:18.736Z,59.67
2019-01-12T19:56:44.760Z,59.09
2019-01-12T19:59:13.786Z,58.79
2019-01-12T20:01:38.447Z,58.85
2019-01-12T20:04:04.343Z,59.24
2019-01-12T20:06:30.314Z,59.61
2019-01-12T20:08:56.215Z,59.72
2019-01-12T20:11:22.078Z,58.92
2019-01-12T20:13:47.957Z,58.17
2019-01-12T20:16:13.812Z,58.30
2019-01-12T20:18:39.657Z,58.81
2019-01-12T20:21:05.519Z,57.69
2019-01-12T20:23:31.402Z,58.21
2019-01-12T20:25:57.304Z,57.93
2019-01-12T20:28:23.222Z,57.93
2019-01-12T20:31:18.612Z,57.58
2019-01-12T20:33:48.290Z,58.38
2019-01-12T20:36:35.088Z,58.34
2019-01-12T20:39:10.635Z,58.55
2019-01-12T20:41:52.380Z,59.53
2019-01-12T20:44:30.656Z,58.39
2019-01-12T20:47:03.165Z,59.32
2019-01-12T20:49:32.921Z,59.58
2019-01-12T20:52:21.331Z,58.83
2019-01-12T20:55:13.704Z,59.54
2019-01-12T20:58:01.636Z,58.99
2019-01-12T21:00:55.407Z,59.05
2019-01-12T21:03:34.127Z,59.35
2019-01-12T21:06:21.958Z,59.56
2019-01-12T21:08:54.329Z,59.71
2019-01-12T21:11:32.777Z,59.93
2019-01-12T21:14:08.305Z,59.87
2019-01-12T21:16:35.165Z,59.87
2019-01-12T21:19:01.044Z,59.34
2019-01-12T21:21:26.910Z,59.94
2019-01-12T21:23:52.774Z,60.35
2019-01-12T21:26:18.638Z,60.49
2019-01-12T21:28:44.535Z,60.64
2019-01-12T21:31:10.580Z,60.22
2019-01-12T21:33:36.441Z,60.79
2019-01-12T21:36:02.330Z,60.72
2019-01-12T21:38:28.198Z,61.05
2019-01-12T21:40:54.069Z,61.18
2019-01-12T21:43:19.937Z,61.30
2019-01-12T21:45:45.794Z,61.62
2019-01-12T21:48:11.646Z,61.63
2019-01-12T21:50:37.577Z,62.20
2019-01-12T21:53:03.635Z,62.41
2019-01-12T21:55:31.012Z,62.53
2019-01-12T21:57:56.981Z,62.11
2019-01-12T22:00:23.698Z,61.19
2019-01-12T22:02:49.569Z,60.53
2019-01-12T22:05:15.476Z,60.86
2019-01-12T22:07:41.368Z,60.96
2019-01-12T22:10:11.043Z,60.07
2019-01-12T22:12:36.947Z,59.82
2019-01-12T22:15:06.410Z,60.33
2019-01-12T22:17:32.324Z,60.90
2019-01-12T22:19:58.203Z,60.08
2019-01-12T22:22:24.097Z,59.98
2019-01-12T22:24:49.938Z,60.18
2019-01-12T22:27:15.803Z,59.72
2019-01-12T22:29:41.668Z,59.75
2019-01-12T22:32:07.559Z,59.92
2019-01-12T22:34:33.426Z,59.83
2019-01-12T22:36:59.315Z,59.16
2019-01-12T22:39:25.180Z,59.80
2019-01-12T22:41:51.066Z,59.84
2019-01-12T22:44:16.963Z,59.58
2019-01-12T22:46:42.952Z,59.50
2019-01-12T22:49:08.866Z,60.09
2019-01-12T22:51:34.747Z,60.59
2019-01-12T22:54:01.460Z,60.95
2019-01-12T22:56:27.346Z,61.42
2019-01-12T22:58:53.240Z,60.42
2019-01-12T23:01:22.928Z,61.08
2019-01-12T23:03:49.346Z,60.45
2019-01-12T23:06:15.209Z,60.74
2019-01-12T23:08:41.063Z,60.46
2019-01-12T23:11:07.069Z,59.64
2019-01-12T23:13:32.960Z,59.47
2019-01-12T23:15:58.832Z,59.83
2019-01-12T23:18:24.715Z,60.28
2019-01-12T23:20:50.608Z,60.88
2019-01-12T23:23:16.488Z,60.11
2019-01-12T23:25:42.362Z,59.99
2019-01-12T23:28:08.231Z,60.65
2019-01-12T23:30:34.219Z,60.88
2019-01-12T23:33:00.125Z,60.26
2019-01-12T23:35:25.992Z,59.20
2019-01-12T23:37:51.874Z,59.57
2019-01-12T23:40:17.738Z,60.00
2019-01-12T23:42:43.669Z,59.87
2019-01-12T23:45:11.331Z,59.94
2019-01-12T23:47:37.186Z,60.30
2019-01-12T23:50:08.752Z,61.19
2019-01-12T23:52:34.660Z,61.14
2019-01-12T23:55:01.804Z,59.94
2019-01-12T23:57:27.661Z,59.96
2019-01-12T23:59:53.523Z,59.98
